sensor_id;sensor_type;location;lat;lon;timestamp;temperature;humidity
3790;DHT22;1910;49.042;9.028;2022-07-18T00:01:31;16.60;70.40
3790;DHT22;1910;49.042;9.028;2022-07-18T00:03:58;16.70;69.60
3790;DHT22;1910;49.042;9.028;2022-07-18T00:06:24;16.80;71.00
3790;DHT22;1910;49.042;9.028;2022-07-18T00:08:50;18.40;72.30
3790;DHT22;1910;49.042;9.028;2022-07-18T00:11:16;17.60;71.80
3790;DHT22;1910;49.042;9.028;2022-07-18T00:13:41;16.70;70.30
3790;DHT22;1910;49.042;9.028;2022-07-18T00:16:07;16.70;70.00
3790;DHT22;1910;49.042;9.028;2022-07-18T00:20:58;16.60;68.00
3790;DHT22;1910;49.042;9.028;2022-07-18T00:23:24;16.50;68.20
3790;DHT22;1910;49.042;9.028;2022-07-18T00:25:50;16.50;69.00
3790;DHT22;1910;49.042;9.028;2022-07-18T00:28:15;16.50;69.40
3790;DHT22;1910;49.042;9.028;2022-07-18T00:30:42;16.60;71.00
3790;DHT22;1910;49.042;9.028;2022-07-18T00:35:34;16.60;68.20
3790;DHT22;1910;49.042;9.028;2022-07-18T00:38:00;16.60;68.30
3790;DHT22;1910;49.042;9.028;2022-07-18T00:40:27;16.50;66.40
3790;DHT22;1910;49.042;9.028;2022-07-18T00:42:53;16.40;64.10
3790;DHT22;1910;49.042;9.028;2022-07-18T00:45:18;16.50;63.90
3790;DHT22;1910;49.042;9.028;2022-07-18T00:47:44;16.30;63.80
3790;DHT22;1910;49.042;9.028;2022-07-18T00:50:10;17.80;68.70
3790;DHT22;1910;49.042;9.028;2022-07-18T00:52:36;16.40;67.90
3790;DHT22;1910;49.042;9.028;2022-07-18T00:55:06;16.40;68.50
3790;DHT22;1910;49.042;9.028;2022-07-18T00:57:32;16.30;68.90
3790;DHT22;1910;49.042;9.028;2022-07-18T00:59:57;16.20;68.40
3790;DHT22;1910;49.042;9.028;2022-07-18T01:02:42;16.20;69.40
3790;DHT22;1910;49.042;9.028;2022-07-18T01:05:08;16.10;68.00
3790;DHT22;1910;49.042;9.028;2022-07-18T01:07:35;16.10;68.50
3790;DHT22;1910;49.042;9.028;2022-07-18T01:10:01;15.90;73.00
3790;DHT22;1910;49.042;9.028;2022-07-18T01:12:28;15.80;72.40
3790;DHT22;1910;49.042;9.028;2022-07-18T01:14:53;15.70;72.50
3790;DHT22;1910;49.042;9.028;2022-07-18T01:17:21;15.60;73.90
3790;DHT22;1910;49.042;9.028;2022-07-18T01:22:14;15.50;71.90
3790;DHT22;1910;49.042;9.028;2022-07-18T01:24:40;15.50;71.90
3790;DHT22;1910;49.042;9.028;2022-07-18T01:27:06;15.50;71.40
3790;DHT22;1910;49.042;9.028;2022-07-18T01:29:32;15.70;71.70
3790;DHT22;1910;49.042;9.028;2022-07-18T01:32:04;15.50;73.80
3790;DHT22;1910;49.042;9.028;2022-07-18T01:34:30;15.80;75.00
3790;DHT22;1910;49.042;9.028;2022-07-18T01:36:55;15.50;75.00
3790;DHT22;1910;49.042;9.028;2022-07-18T01:39:21;15.50;75.20
3790;DHT22;1910;49.042;9.028;2022-07-18T01:41:55;15.40;73.60
3790;DHT22;1910;49.042;9.028;2022-07-18T01:44:20;15.40;74.00
3790;DHT22;1910;49.042;9.028;2022-07-18T01:46:45;15.40;73.40
3790;DHT22;1910;49.042;9.028;2022-07-18T01:49:11;15.40;74.30
3790;DHT22;1910;49.042;9.028;2022-07-18T01:51:36;15.40;74.10
3790;DHT22;1910;49.042;9.028;2022-07-18T01:54:02;16.30;74.20
3790;DHT22;1910;49.042;9.028;2022-07-18T01:56:28;15.30;73.50
3790;DHT22;1910;49.042;9.028;2022-07-18T01:58:53;15.30;74.50
3790;DHT22;1910;49.042;9.028;2022-07-18T02:01:19;15.30;74.40
3790;DHT22;1910;49.042;9.028;2022-07-18T02:03:45;15.30;74.50
3790;DHT22;1910;49.042;9.028;2022-07-18T02:06:10;15.20;74.30
3790;DHT22;1910;49.042;9.028;2022-07-18T02:08:36;15.20;73.30
3790;DHT22;1910;49.042;9.028;2022-07-18T02:11:01;15.20;72.50
3790;DHT22;1910;49.042;9.028;2022-07-18T02:13:27;15.10;71.90
3790;DHT22;1910;49.042;9.028;2022-07-18T02:15:52;15.10;71.70
3790;DHT22;1910;49.042;9.028;2022-07-18T02:18:21;15.00;71.10
3790;DHT22;1910;49.042;9.028;2022-07-18T02:20:46;15.00;70.30
3790;DHT22;1910;49.042;9.028;2022-07-18T02:23:12;15.00;71.20
3790;DHT22;1910;49.042;9.028;2022-07-18T02:25:37;15.00;73.40
3790;DHT22;1910;49.042;9.028;2022-07-18T02:28:04;15.00;73.40
3790;DHT22;1910;49.042;9.028;2022-07-18T02:30:30;15.00;71.60
3790;DHT22;1910;49.042;9.028;2022-07-18T02:32:56;15.00;71.90
3790;DHT22;1910;49.042;9.028;2022-07-18T02:35:21;15.00;71.70
3790;DHT22;1910;49.042;9.028;2022-07-18T02:37:47;15.00;72.10
3790;DHT22;1910;49.042;9.028;2022-07-18T02:40:12;14.90;72.30
3790;DHT22;1910;49.042;9.028;2022-07-18T02:42:38;14.90;72.80
3790;DHT22;1910;49.042;9.028;2022-07-18T02:45:05;14.90;73.30
3790;DHT22;1910;49.042;9.028;2022-07-18T02:47:32;14.90;74.20
3790;DHT22;1910;49.042;9.028;2022-07-18T02:49:57;14.80;74.00
3790;DHT22;1910;49.042;9.028;2022-07-18T02:52:23;14.80;75.20
3790;DHT22;1910;49.042;9.028;2022-07-18T02:54:49;14.80;78.20
3790;DHT22;1910;49.042;9.028;2022-07-18T02:57:14;14.70;79.60
3790;DHT22;1910;49.042;9.028;2022-07-18T02:59:40;14.60;79.10
3790;DHT22;1910;49.042;9.028;2022-07-18T03:02:06;14.60;78.50
3790;DHT22;1910;49.042;9.028;2022-07-18T03:04:32;14.50;78.80
3790;DHT22;1910;49.042;9.028;2022-07-18T03:06:58;14.40;80.30
3790;DHT22;1910;49.042;9.028;2022-07-18T03:09:24;14.30;82.30
3790;DHT22;1910;49.042;9.028;2022-07-18T03:11:53;14.20;81.80
3790;DHT22;1910;49.042;9.028;2022-07-18T03:14:19;14.20;83.40
3790;DHT22;1910;49.042;9.028;2022-07-18T03:16:45;14.10;85.80
3790;DHT22;1910;49.042;9.028;2022-07-18T03:19:10;13.90;87.20
3790;DHT22;1910;49.042;9.028;2022-07-18T03:21:36;13.80;91.40
3790;DHT22;1910;49.042;9.028;2022-07-18T03:24:01;13.70;91.80
3790;DHT22;1910;49.042;9.028;2022-07-18T03:26:27;13.70;92.30
3790;DHT22;1910;49.042;9.028;2022-07-18T03:28:53;13.70;92.60
3790;DHT22;1910;49.042;9.028;2022-07-18T03:31:19;13.70;92.90
3790;DHT22;1910;49.042;9.028;2022-07-18T03:33:44;13.80;93.90
3790;DHT22;1910;49.042;9.028;2022-07-18T03:36:10;13.80;94.90
3790;DHT22;1910;49.042;9.028;2022-07-18T03:38:35;13.80;94.40
3790;DHT22;1910;49.042;9.028;2022-07-18T03:41:02;13.80;93.50
3790;DHT22;1910;49.042;9.028;2022-07-18T03:43:28;13.90;93.00
3790;DHT22;1910;49.042;9.028;2022-07-18T03:45:53;13.90;93.10
3790;DHT22;1910;49.042;9.028;2022-07-18T03:48:19;13.90;93.80
3790;DHT22;1910;49.042;9.028;2022-07-18T03:50:44;13.90;95.00
3790;DHT22;1910;49.042;9.028;2022-07-18T03:53:10;13.90;95.00
3790;DHT22;1910;49.042;9.028;2022-07-18T03:55:36;13.90;94.70
3790;DHT22;1910;49.042;9.028;2022-07-18T03:58:01;13.90;94.40
3790;DHT22;1910;49.042;9.028;2022-07-18T04:00:27;14.10;93.30
3790;DHT22;1910;49.042;9.028;2022-07-18T04:02:53;14.20;92.40
3790;DHT22;1910;49.042;9.028;2022-07-18T04:05:18;15.30;93.40
3790;DHT22;1910;49.042;9.028;2022-07-18T04:07:44;14.70;94.70
3790;DHT22;1910;49.042;9.028;2022-07-18T04:10:11;14.80;94.70
3790;DHT22;1910;49.042;9.028;2022-07-18T04:12:50;14.90;95.00
3790;DHT22;1910;49.042;9.028;2022-07-18T04:15:18;15.00;95.10
3790;DHT22;1910;49.042;9.028;2022-07-18T04:17:44;15.10;94.70
3790;DHT22;1910;49.042;9.028;2022-07-18T04:20:10;15.30;94.60
3790;DHT22;1910;49.042;9.028;2022-07-18T04:22:56;15.50;94.00
3790;DHT22;1910;49.042;9.028;2022-07-18T04:25:24;15.60;94.10
3790;DHT22;1910;49.042;9.028;2022-07-18T04:27:51;15.80;94.20
3790;DHT22;1910;49.042;9.028;2022-07-18T04:30:21;16.50;95.10
3790;DHT22;1910;49.042;9.028;2022-07-18T04:32:48;18.20;94.50
3790;DHT22;1910;49.042;9.028;2022-07-18T04:35:13;20.10;87.50
3790;DHT22;1910;49.042;9.028;2022-07-18T04:37:39;21.30;76.70
3790;DHT22;1910;49.042;9.028;2022-07-18T04:40:12;22.80;74.00
3790;DHT22;1910;49.042;9.028;2022-07-18T04:42:37;24.40;68.40
3790;DHT22;1910;49.042;9.028;2022-07-18T04:45:04;26.00;60.60
3790;DHT22;1910;49.042;9.028;2022-07-18T04:47:30;27.40;58.00
3790;DHT22;1910;49.042;9.028;2022-07-18T04:49:56;28.70;53.10
3790;DHT22;1910;49.042;9.028;2022-07-18T04:52:22;29.70;51.40
3790;DHT22;1910;49.042;9.028;2022-07-18T04:54:47;31.00;48.80
3790;DHT22;1910;49.042;9.028;2022-07-18T04:57:13;32.10;45.60
3790;DHT22;1910;49.042;9.028;2022-07-18T04:59:43;33.00;42.70
3790;DHT22;1910;49.042;9.028;2022-07-18T05:02:10;32.70;41.20
3790;DHT22;1910;49.042;9.028;2022-07-18T05:04:36;32.10;42.10
3790;DHT22;1910;49.042;9.028;2022-07-18T05:07:02;31.80;43.00
3790;DHT22;1910;49.042;9.028;2022-07-18T05:09:28;31.10;42.20
3790;DHT22;1910;49.042;9.028;2022-07-18T05:11:54;32.40;41.80
3790;DHT22;1910;49.042;9.028;2022-07-18T05:14:19;33.90;39.90
3790;DHT22;1910;49.042;9.028;2022-07-18T05:16:46;35.00;38.30
3790;DHT22;1910;49.042;9.028;2022-07-18T05:19:12;35.90;36.80
3790;DHT22;1910;49.042;9.028;2022-07-18T05:21:37;34.50;35.00
3790;DHT22;1910;49.042;9.028;2022-07-18T05:24:03;34.50;35.60
3790;DHT22;1910;49.042;9.028;2022-07-18T05:26:28;34.90;37.10
3790;DHT22;1910;49.042;9.028;2022-07-18T05:28:54;37.40;37.00
3790;DHT22;1910;49.042;9.028;2022-07-18T05:31:19;36.50;35.50
3790;DHT22;1910;49.042;9.028;2022-07-18T05:33:45;37.20;34.50
3790;DHT22;1910;49.042;9.028;2022-07-18T05:38:36;36.60;33.80
3790;DHT22;1910;49.042;9.028;2022-07-18T05:41:02;35.50;34.60
3790;DHT22;1910;49.042;9.028;2022-07-18T05:43:27;34.60;35.10
3790;DHT22;1910;49.042;9.028;2022-07-18T05:45:53;34.40;35.60
3790;DHT22;1910;49.042;9.028;2022-07-18T05:48:18;34.60;36.50
3790;DHT22;1910;49.042;9.028;2022-07-18T05:50:44;34.60;35.80
3790;DHT22;1910;49.042;9.028;2022-07-18T05:53:09;35.40;35.30
3790;DHT22;1910;49.042;9.028;2022-07-18T05:55:35;36.40;35.10
3790;DHT22;1910;49.042;9.028;2022-07-18T05:58:01;36.50;33.70
3790;DHT22;1910;49.042;9.028;2022-07-18T06:00:26;35.40;34.20
3790;DHT22;1910;49.042;9.028;2022-07-18T06:02:52;34.90;35.30
3790;DHT22;1910;49.042;9.028;2022-07-18T06:05:18;37.10;34.70
3790;DHT22;1910;49.042;9.028;2022-07-18T06:07:43;38.10;33.00
3790;DHT22;1910;49.042;9.028;2022-07-18T06:10:09;37.40;32.50
3790;DHT22;1910;49.042;9.028;2022-07-18T06:12:35;38.50;33.40
3790;DHT22;1910;49.042;9.028;2022-07-18T06:15:00;39.70;31.50
3790;DHT22;1910;49.042;9.028;2022-07-18T06:17:26;40.50;30.50
3790;DHT22;1910;49.042;9.028;2022-07-18T06:19:54;39.70;30.20
3790;DHT22;1910;49.042;9.028;2022-07-18T06:22:21;40.50;30.40
3790;DHT22;1910;49.042;9.028;2022-07-18T06:24:47;40.20;30.60
3790;DHT22;1910;49.042;9.028;2022-07-18T06:27:13;41.00;30.00
3790;DHT22;1910;49.042;9.028;2022-07-18T06:29:39;41.10;29.60
3790;DHT22;1910;49.042;9.028;2022-07-18T06:32:05;41.60;29.50
3790;DHT22;1910;49.042;9.028;2022-07-18T06:34:30;42.30;29.10
3790;DHT22;1910;49.042;9.028;2022-07-18T06:36:56;42.60;29.30
3790;DHT22;1910;49.042;9.028;2022-07-18T06:39:21;42.50;28.60
3790;DHT22;1910;49.042;9.028;2022-07-18T06:41:47;40.60;29.60
3790;DHT22;1910;49.042;9.028;2022-07-18T06:44:13;40.70;30.20
3790;DHT22;1910;49.042;9.028;2022-07-18T06:46:38;40.40;30.00
3790;DHT22;1910;49.042;9.028;2022-07-18T06:49:05;40.20;30.10
3790;DHT22;1910;49.042;9.028;2022-07-18T06:51:31;42.30;30.00
3790;DHT22;1910;49.042;9.028;2022-07-18T06:53:57;42.20;30.30
3790;DHT22;1910;49.042;9.028;2022-07-18T06:58:51;45.40;28.00
3790;DHT22;1910;49.042;9.028;2022-07-18T07:01:18;46.60;27.50
3790;DHT22;1910;49.042;9.028;2022-07-18T07:03:44;46.00;27.40
3790;DHT22;1910;49.042;9.028;2022-07-18T07:06:10;44.80;27.10
3790;DHT22;1910;49.042;9.028;2022-07-18T07:11:01;46.30;26.10
3790;DHT22;1910;49.042;9.028;2022-07-18T07:15:53;45.50;25.30
3790;DHT22;1910;49.042;9.028;2022-07-18T07:18:18;44.90;25.80
3790;DHT22;1910;49.042;9.028;2022-07-18T07:25:37;46.80;24.50
3790;DHT22;1910;49.042;9.028;2022-07-18T07:28:04;44.60;24.20
3790;DHT22;1910;49.042;9.028;2022-07-18T07:30:30;44.70;25.50
3790;DHT22;1910;49.042;9.028;2022-07-18T07:35:22;45.00;25.00
3790;DHT22;1910;49.042;9.028;2022-07-18T07:37:51;42.60;25.50
3790;DHT22;1910;49.042;9.028;2022-07-18T07:40:17;42.50;25.90
3790;DHT22;1910;49.042;9.028;2022-07-18T07:42:43;43.10;26.30
3790;DHT22;1910;49.042;9.028;2022-07-18T07:45:09;43.30;25.90
3790;DHT22;1910;49.042;9.028;2022-07-18T07:47:36;45.30;24.40
3790;DHT22;1910;49.042;9.028;2022-07-18T07:50:02;46.40;23.90
3790;DHT22;1910;49.042;9.028;2022-07-18T07:52:28;46.70;24.20
3790;DHT22;1910;49.042;9.028;2022-07-18T07:57:20;45.40;23.10
3790;DHT22;1910;49.042;9.028;2022-07-18T07:59:46;44.20;24.10
3790;DHT22;1910;49.042;9.028;2022-07-18T08:02:11;45.00;23.70
3790;DHT22;1910;49.042;9.028;2022-07-18T08:04:37;45.10;23.40
3790;DHT22;1910;49.042;9.028;2022-07-18T08:07:02;44.60;23.50
3790;DHT22;1910;49.042;9.028;2022-07-18T08:09:28;44.10;23.20
3790;DHT22;1910;49.042;9.028;2022-07-18T08:11:54;45.00;23.90
3790;DHT22;1910;49.042;9.028;2022-07-18T08:14:19;44.90;23.40
3790;DHT22;1910;49.042;9.028;2022-07-18T08:16:45;44.80;23.00
3790;DHT22;1910;49.042;9.028;2022-07-18T08:19:10;44.80;23.50
3790;DHT22;1910;49.042;9.028;2022-07-18T08:21:36;44.40;22.70
3790;DHT22;1910;49.042;9.028;2022-07-18T08:24:02;44.40;23.20
3790;DHT22;1910;49.042;9.028;2022-07-18T08:26:27;44.20;23.10
3790;DHT22;1910;49.042;9.028;2022-07-18T08:28:53;43.70;23.00
3790;DHT22;1910;49.042;9.028;2022-07-18T08:31:19;43.10;23.30
3790;DHT22;1910;49.042;9.028;2022-07-18T08:33:45;42.70;23.10
3790;DHT22;1910;49.042;9.028;2022-07-18T08:38:37;42.40;22.60
3790;DHT22;1910;49.042;9.028;2022-07-18T08:41:03;42.20;23.40
3790;DHT22;1910;49.042;9.028;2022-07-18T08:43:29;42.60;23.80
3790;DHT22;1910;49.042;9.028;2022-07-18T08:45:56;42.90;23.60
3790;DHT22;1910;49.042;9.028;2022-07-18T08:48:22;41.80;23.80
3790;DHT22;1910;49.042;9.028;2022-07-18T08:50:48;42.30;24.00
3790;DHT22;1910;49.042;9.028;2022-07-18T08:53:15;42.90;23.40
3790;DHT22;1910;49.042;9.028;2022-07-18T08:55:43;43.30;24.10
3790;DHT22;1910;49.042;9.028;2022-07-18T08:58:09;42.20;23.10
3790;DHT22;1910;49.042;9.028;2022-07-18T09:00:35;42.00;23.40
3790;DHT22;1910;49.042;9.028;2022-07-18T09:03:02;41.80;23.40
3790;DHT22;1910;49.042;9.028;2022-07-18T09:05:29;41.60;23.20
3790;DHT22;1910;49.042;9.028;2022-07-18T09:08:18;41.60;23.50
3790;DHT22;1910;49.042;9.028;2022-07-18T09:13:17;40.50;22.60
3790;DHT22;1910;49.042;9.028;2022-07-18T09:15:58;40.70;23.20
3790;DHT22;1910;49.042;9.028;2022-07-18T09:18:35;41.30;23.00
3790;DHT22;1910;49.042;9.028;2022-07-18T09:21:07;41.60;23.20
3790;DHT22;1910;49.042;9.028;2022-07-18T09:23:35;41.90;23.30
3790;DHT22;1910;49.042;9.028;2022-07-18T09:26:01;42.00;23.00
3790;DHT22;1910;49.042;9.028;2022-07-18T09:28:45;41.40;23.30
3790;DHT22;1910;49.042;9.028;2022-07-18T09:31:23;41.10;23.00
3790;DHT22;1910;49.042;9.028;2022-07-18T09:33:59;41.20;23.90
3790;DHT22;1910;49.042;9.028;2022-07-18T09:36:26;41.60;23.60
3790;DHT22;1910;49.042;9.028;2022-07-18T09:38:53;42.10;23.40
3790;DHT22;1910;49.042;9.028;2022-07-18T09:41:24;42.00;22.40
3790;DHT22;1910;49.042;9.028;2022-07-18T09:46:16;40.90;23.50
3790;DHT22;1910;49.042;9.028;2022-07-18T09:48:42;40.80;23.90
3790;DHT22;1910;49.042;9.028;2022-07-18T09:51:08;40.90;24.10
3790;DHT22;1910;49.042;9.028;2022-07-18T09:53:42;41.10;23.80
3790;DHT22;1910;49.042;9.028;2022-07-18T09:56:10;40.90;23.60
3790;DHT22;1910;49.042;9.028;2022-07-18T09:58:38;40.40;23.40
3790;DHT22;1910;49.042;9.028;2022-07-18T10:01:05;40.90;23.70
3790;DHT22;1910;49.042;9.028;2022-07-18T10:03:31;41.30;23.10
3790;DHT22;1910;49.042;9.028;2022-07-18T10:05:58;40.90;23.50
3790;DHT22;1910;49.042;9.028;2022-07-18T10:08:26;40.90;23.40
3790;DHT22;1910;49.042;9.028;2022-07-18T10:10:53;41.20;23.70
3790;DHT22;1910;49.042;9.028;2022-07-18T10:13:22;41.60;23.10
3790;DHT22;1910;49.042;9.028;2022-07-18T10:15:48;40.80;23.60
3790;DHT22;1910;49.042;9.028;2022-07-18T10:18:17;40.70;23.50
3790;DHT22;1910;49.042;9.028;2022-07-18T10:26:15;40.60;23.30
3790;DHT22;1910;49.042;9.028;2022-07-18T10:31:34;40.00;23.50
3790;DHT22;1910;49.042;9.028;2022-07-18T10:34:10;40.40;23.60
3790;DHT22;1910;49.042;9.028;2022-07-18T10:39:19;40.60;22.60
3790;DHT22;1910;49.042;9.028;2022-07-18T10:57:36;33.20;27.30
3790;DHT22;1910;49.042;9.028;2022-07-18T11:00:13;32.90;27.20
3790;DHT22;1910;49.042;9.028;2022-07-18T11:02:44;32.70;27.40
3790;DHT22;1910;49.042;9.028;2022-07-18T11:16:03;32.10;28.00
3790;DHT22;1910;49.042;9.028;2022-07-18T11:21:22;32.30;27.40
3790;DHT22;1910;49.042;9.028;2022-07-18T11:24:05;32.20;27.30
3790;DHT22;1910;49.042;9.028;2022-07-18T11:26:35;32.30;27.50
3790;DHT22;1910;49.042;9.028;2022-07-18T11:29:07;32.20;28.10
3790;DHT22;1910;49.042;9.028;2022-07-18T11:34:11;32.60;28.70
3790;DHT22;1910;49.042;9.028;2022-07-18T11:36:39;33.90;28.00
3790;DHT22;1910;49.042;9.028;2022-07-18T11:39:06;32.80;27.60
3790;DHT22;1910;49.042;9.028;2022-07-18T11:41:32;33.50;26.50
3790;DHT22;1910;49.042;9.028;2022-07-18T11:43:58;33.80;27.10
3790;DHT22;1910;49.042;9.028;2022-07-18T11:46:25;32.90;26.90
3790;DHT22;1910;49.042;9.028;2022-07-18T11:48:59;32.60;26.40
3790;DHT22;1910;49.042;9.028;2022-07-18T11:53:53;32.50;26.50
3790;DHT22;1910;49.042;9.028;2022-07-18T11:56:21;32.90;27.10
3790;DHT22;1910;49.042;9.028;2022-07-18T11:58:48;33.00;27.50
3790;DHT22;1910;49.042;9.028;2022-07-18T12:01:15;33.10;25.80
3790;DHT22;1910;49.042;9.028;2022-07-18T12:03:45;33.90;26.50
3790;DHT22;1910;49.042;9.028;2022-07-18T12:06:19;32.90;26.80
3790;DHT22;1910;49.042;9.028;2022-07-18T12:08:46;33.20;26.70
3790;DHT22;1910;49.042;9.028;2022-07-18T12:11:37;32.90;27.00
3790;DHT22;1910;49.042;9.028;2022-07-18T12:16:43;33.70;26.70
3790;DHT22;1910;49.042;9.028;2022-07-18T12:19:18;32.90;25.80
3790;DHT22;1910;49.042;9.028;2022-07-18T12:24:24;33.00;26.60
3790;DHT22;1910;49.042;9.028;2022-07-18T12:27:20;34.90;27.40
3790;DHT22;1910;49.042;9.028;2022-07-18T12:30:06;33.70;26.20
3790;DHT22;1910;49.042;9.028;2022-07-18T12:32:48;33.70;26.30
3790;DHT22;1910;49.042;9.028;2022-07-18T12:35:17;33.30;26.50
3790;DHT22;1910;49.042;9.028;2022-07-18T12:40:19;33.60;26.30
3790;DHT22;1910;49.042;9.028;2022-07-18T12:42:44;33.60;26.30
3790;DHT22;1910;49.042;9.028;2022-07-18T12:45:12;33.60;26.30
3790;DHT22;1910;49.042;9.028;2022-07-18T12:47:38;33.50;26.40
3790;DHT22;1910;49.042;9.028;2022-07-18T12:50:05;33.50;26.80
3790;DHT22;1910;49.042;9.028;2022-07-18T12:52:31;33.50;26.40
3790;DHT22;1910;49.042;9.028;2022-07-18T12:54:56;33.40;26.80
3790;DHT22;1910;49.042;9.028;2022-07-18T12:57:22;33.60;26.80
3790;DHT22;1910;49.042;9.028;2022-07-18T12:59:48;34.10;26.40
3790;DHT22;1910;49.042;9.028;2022-07-18T13:02:15;33.80;25.90
3790;DHT22;1910;49.042;9.028;2022-07-18T13:04:41;33.40;25.70
3790;DHT22;1910;49.042;9.028;2022-07-18T13:07:06;33.40;26.10
3790;DHT22;1910;49.042;9.028;2022-07-18T13:09:33;33.40;26.00
3790;DHT22;1910;49.042;9.028;2022-07-18T13:16:59;34.00;26.60
3790;DHT22;1910;49.042;9.028;2022-07-18T13:19:24;34.00;26.60
3790;DHT22;1910;49.042;9.028;2022-07-18T13:21:50;33.80;26.20
3790;DHT22;1910;49.042;9.028;2022-07-18T13:24:15;33.60;27.20
3790;DHT22;1910;49.042;9.028;2022-07-18T13:26:42;33.60;26.60
3790;DHT22;1910;49.042;9.028;2022-07-18T13:29:07;33.60;26.30
3790;DHT22;1910;49.042;9.028;2022-07-18T13:31:35;33.60;26.40
3790;DHT22;1910;49.042;9.028;2022-07-18T13:34:02;33.50;26.70
3790;DHT22;1910;49.042;9.028;2022-07-18T13:36:28;33.70;28.40
3790;DHT22;1910;49.042;9.028;2022-07-18T13:38:54;34.10;27.20
3790;DHT22;1910;49.042;9.028;2022-07-18T13:41:21;34.00;26.70
3790;DHT22;1910;49.042;9.028;2022-07-18T13:43:46;33.70;27.70
3790;DHT22;1910;49.042;9.028;2022-07-18T13:46:12;33.90;26.80
3790;DHT22;1910;49.042;9.028;2022-07-18T13:48:38;34.10;27.30
3790;DHT22;1910;49.042;9.028;2022-07-18T13:51:05;34.30;26.30
3790;DHT22;1910;49.042;9.028;2022-07-18T13:53:31;34.30;26.70
3790;DHT22;1910;49.042;9.028;2022-07-18T13:55:56;34.30;26.80
3790;DHT22;1910;49.042;9.028;2022-07-18T13:58:22;34.30;26.40
3790;DHT22;1910;49.042;9.028;2022-07-18T14:00:48;34.30;25.90
3790;DHT22;1910;49.042;9.028;2022-07-18T14:03:14;34.10;25.80
3790;DHT22;1910;49.042;9.028;2022-07-18T14:05:41;33.90;26.30
3790;DHT22;1910;49.042;9.028;2022-07-18T14:08:07;33.80;25.90
3790;DHT22;1910;49.042;9.028;2022-07-18T14:10:34;33.60;25.90
3790;DHT22;1910;49.042;9.028;2022-07-18T14:12:59;33.80;26.00
3790;DHT22;1910;49.042;9.028;2022-07-18T14:15:25;33.90;26.10
3790;DHT22;1910;49.042;9.028;2022-07-18T14:17:51;34.10;25.80
3790;DHT22;1910;49.042;9.028;2022-07-18T14:20:17;34.10;26.30
3790;DHT22;1910;49.042;9.028;2022-07-18T14:22:44;34.00;26.90
3790;DHT22;1910;49.042;9.028;2022-07-18T14:25:12;33.90;26.10
3790;DHT22;1910;49.042;9.028;2022-07-18T14:27:38;33.80;26.60
3790;DHT22;1910;49.042;9.028;2022-07-18T14:30:05;33.90;26.50
3790;DHT22;1910;49.042;9.028;2022-07-18T14:32:31;34.00;26.30
3790;DHT22;1910;49.042;9.028;2022-07-18T14:34:57;34.10;26.40
3790;DHT22;1910;49.042;9.028;2022-07-18T14:37:23;34.10;26.60
3790;DHT22;1910;49.042;9.028;2022-07-18T14:39:48;34.30;26.90
3790;DHT22;1910;49.042;9.028;2022-07-18T14:42:14;34.40;26.70
3790;DHT22;1910;49.042;9.028;2022-07-18T14:44:40;34.60;25.90
3790;DHT22;1910;49.042;9.028;2022-07-18T14:47:05;34.60;26.30
3790;DHT22;1910;49.042;9.028;2022-07-18T14:49:31;34.40;26.20
3790;DHT22;1910;49.042;9.028;2022-07-18T14:51:57;34.30;26.60
3790;DHT22;1910;49.042;9.028;2022-07-18T14:54:23;34.40;26.70
3790;DHT22;1910;49.042;9.028;2022-07-18T14:56:49;34.10;26.80
3790;DHT22;1910;49.042;9.028;2022-07-18T14:59:14;34.10;26.80
3790;DHT22;1910;49.042;9.028;2022-07-18T15:01:40;34.10;26.50
3790;DHT22;1910;49.042;9.028;2022-07-18T15:04:05;34.20;26.30
3790;DHT22;1910;49.042;9.028;2022-07-18T15:06:31;34.30;26.30
3790;DHT22;1910;49.042;9.028;2022-07-18T15:08:56;34.10;26.60
3790;DHT22;1910;49.042;9.028;2022-07-18T15:11:22;34.00;26.60
3790;DHT22;1910;49.042;9.028;2022-07-18T15:13:50;33.90;26.90
3790;DHT22;1910;49.042;9.028;2022-07-18T15:16:16;34.10;26.90
3790;DHT22;1910;49.042;9.028;2022-07-18T15:18:43;34.30;26.50
3790;DHT22;1910;49.042;9.028;2022-07-18T15:21:08;34.40;25.90
3790;DHT22;1910;49.042;9.028;2022-07-18T15:23:34;34.30;25.90
3790;DHT22;1910;49.042;9.028;2022-07-18T15:25:59;34.20;26.20
3790;DHT22;1910;49.042;9.028;2022-07-18T15:28:25;34.30;27.30
3790;DHT22;1910;49.042;9.028;2022-07-18T15:30:50;33.80;27.10
3790;DHT22;1910;49.042;9.028;2022-07-18T15:33:16;33.90;27.10
3790;DHT22;1910;49.042;9.028;2022-07-18T15:35:43;33.70;26.50
3790;DHT22;1910;49.042;9.028;2022-07-18T15:38:09;33.70;27.50
3790;DHT22;1910;49.042;9.028;2022-07-18T15:40:35;33.50;27.60
3790;DHT22;1910;49.042;9.028;2022-07-18T15:43:00;33.30;27.50
3790;DHT22;1910;49.042;9.028;2022-07-18T15:45:26;33.50;27.30
3790;DHT22;1910;49.042;9.028;2022-07-18T15:47:52;33.60;27.30
3790;DHT22;1910;49.042;9.028;2022-07-18T15:50:17;33.50;27.60
3790;DHT22;1910;49.042;9.028;2022-07-18T15:52:43;33.50;28.10
3790;DHT22;1910;49.042;9.028;2022-07-18T15:55:09;33.50;27.70
3790;DHT22;1910;49.042;9.028;2022-07-18T15:57:35;33.40;28.00
3790;DHT22;1910;49.042;9.028;2022-07-18T16:00:00;33.30;27.40
3790;DHT22;1910;49.042;9.028;2022-07-18T16:02:26;33.30;27.20
3790;DHT22;1910;49.042;9.028;2022-07-18T16:04:52;33.10;27.30
3790;DHT22;1910;49.042;9.028;2022-07-18T16:07:17;33.10;27.40
3790;DHT22;1910;49.042;9.028;2022-07-18T16:09:43;32.90;28.20
3790;DHT22;1910;49.042;9.028;2022-07-18T16:12:08;32.90;28.30
3790;DHT22;1910;49.042;9.028;2022-07-18T16:14:34;33.00;27.90
3790;DHT22;1910;49.042;9.028;2022-07-18T16:17:00;33.10;28.00
3790;DHT22;1910;49.042;9.028;2022-07-18T16:19:26;33.20;27.70
3790;DHT22;1910;49.042;9.028;2022-07-18T16:21:52;33.30;27.60
3790;DHT22;1910;49.042;9.028;2022-07-18T16:24:18;33.40;28.20
3790;DHT22;1910;49.042;9.028;2022-07-18T16:26:43;33.50;28.40
3790;DHT22;1910;49.042;9.028;2022-07-18T16:29:09;33.70;28.40
3790;DHT22;1910;49.042;9.028;2022-07-18T16:31:34;33.80;28.20
3790;DHT22;1910;49.042;9.028;2022-07-18T16:34:00;33.90;27.60
3790;DHT22;1910;49.042;9.028;2022-07-18T16:36:26;34.10;27.80
3790;DHT22;1910;49.042;9.028;2022-07-18T16:38:52;33.80;27.20
3790;DHT22;1910;49.042;9.028;2022-07-18T16:41:17;34.20;27.60
3790;DHT22;1910;49.042;9.028;2022-07-18T16:43:43;33.80;27.20
3790;DHT22;1910;49.042;9.028;2022-07-18T16:46:10;33.80;27.30
3790;DHT22;1910;49.042;9.028;2022-07-18T16:48:36;33.50;28.20
3790;DHT22;1910;49.042;9.028;2022-07-18T16:51:01;33.10;28.50
3790;DHT22;1910;49.042;9.028;2022-07-18T16:53:27;32.90;28.90
3790;DHT22;1910;49.042;9.028;2022-07-18T16:55:53;32.90;28.00
3790;DHT22;1910;49.042;9.028;2022-07-18T17:08:47;32.70;28.40
3790;DHT22;1910;49.042;9.028;2022-07-18T17:21:00;31.90;30.80
3790;DHT22;1910;49.042;9.028;2022-07-18T17:23:55;32.00;30.80
3790;DHT22;1910;49.042;9.028;2022-07-18T17:27:08;32.10;29.70
3790;DHT22;1910;49.042;9.028;2022-07-18T17:33:38;32.20;30.00
3790;DHT22;1910;49.042;9.028;2022-07-18T17:51:52;31.90;35.80
3790;DHT22;1910;49.042;9.028;2022-07-18T17:58:11;31.30;36.20
3790;DHT22;1910;49.042;9.028;2022-07-18T18:01:19;31.00;36.40
3790;DHT22;1910;49.042;9.028;2022-07-18T18:04:18;30.80;36.80
3790;DHT22;1910;49.042;9.028;2022-07-18T18:07:01;30.60;37.30
3790;DHT22;1910;49.042;9.028;2022-07-18T18:13:12;30.10;38.40
3790;DHT22;1910;49.042;9.028;2022-07-18T18:15:51;30.00;38.40
3790;DHT22;1910;49.042;9.028;2022-07-18T18:18:23;29.80;38.80
3790;DHT22;1910;49.042;9.028;2022-07-18T18:25:47;28.90;40.00
3790;DHT22;1910;49.042;9.028;2022-07-18T18:35:39;28.20;42.10